Time;durP1;ratioP1;P1;durP2;ratioP2;P2;SDS_P1;SDS_P2;PMS_P1;PMS_P2;Temp;Humidity;BMP_temperature;BMP_pressure;BME280_temperature;BME280_humidity;BME280_pressure;Samples;Min_cycle;Max_cycle;Signal;HPM_P1;HPM_P2
2023/01/03 00:01:25;;;;;;;;;;;;;;;8.99;87.86;102611.56;5065834;28;19915;-42
2023/01/03 00:03:55;;;;;;;;;;;;;;;8.96;88.06;102606.22;5074539;28;19922;-44
2023/01/03 00:06:34;;;;;;;;;;;;;;;8.93;88.23;102601.81;5078391;28;19920;-42
2023/01/03 00:09:00;;;;;;;;;;;;;;;8.91;87.99;102598.22;5076165;28;19918;-46
2023/01/03 00:14:12;;;;;;;;;;;;;;;8.86;87.81;102597.97;5076073;28;20017;-44
2023/01/03 00:16:37;;;;;;;;;;;;;;;8.84;87.69;102599.53;5076849;28;19916;-43
2023/01/03 00:19:10;;;;;;;;;;;;;;;8.79;87.33;102600.91;5079431;28;19923;-43
2023/01/03 00:21:35;;;;;;;;;;;;;;;8.76;87.30;102600.75;5070560;28;20400;-45
2023/01/03 00:24:01;;;;;;;;;;;;;;;8.75;87.51;102603.22;5071322;28;19927;-42
2023/01/03 00:26:27;;;;;;;;;;;;;;;8.74;87.43;102599.78;5068750;28;19970;-45
2023/01/03 00:28:52;;;;;;;;;;;;;;;8.74;87.02;102596.31;5072665;28;19916;-43
2023/01/03 00:31:17;;;;;;;;;;;;;;;8.72;87.01;102600.44;5067760;28;20623;-43
2023/01/03 00:33:42;;;;;;;;;;;;;;;8.71;87.22;102603.81;5073878;28;19916;-43
2023/01/03 00:36:08;;;;;;;;;;;;;;;8.69;87.19;102607.97;5071248;28;20007;-43
2023/01/03 00:38:34;;;;;;;;;;;;;;;8.68;86.89;102603.63;5070228;28;19912;-44
2023/01/03 00:41:04;;;;;;;;;;;;;;;8.65;87.01;102603.41;5073171;28;19931;-42
2023/01/03 00:43:29;;;;;;;;;;;;;;;8.63;86.72;102610.13;5063405;28;19924;-44
2023/01/03 00:45:54;;;;;;;;;;;;;;;8.62;86.42;102608.38;5068986;28;19925;-43
2023/01/03 00:48:20;;;;;;;;;;;;;;;8.58;86.54;102597.91;5065271;28;19970;-46
2023/01/03 00:50:45;;;;;;;;;;;;;;;8.55;86.65;102609.63;5071521;28;20101;-45
2023/01/03 00:53:10;;;;;;;;;;;;;;;8.51;86.27;102611.13;5059181;28;19971;-42
2023/01/03 00:55:35;;;;;;;;;;;;;;;8.50;86.57;102614.47;5070822;28;20365;-43
2023/01/03 00:58:00;;;;;;;;;;;;;;;8.46;86.37;102607.38;5071668;28;20319;-45
2023/01/03 01:00:26;;;;;;;;;;;;;;;8.43;86.29;102617.41;5077805;28;19923;-41
2023/01/03 01:02:54;;;;;;;;;;;;;;;8.43;86.20;102626.78;5073085;28;19952;-45
2023/01/03 01:05:19;;;;;;;;;;;;;;;8.40;86.00;102627.47;5071122;28;19931;-44
2023/01/03 01:07:45;;;;;;;;;;;;;;;8.38;86.16;102621.38;5064904;28;19917;-42
2023/01/03 01:10:10;;;;;;;;;;;;;;;8.33;86.12;102623.59;5061809;28;19959;-43
2023/01/03 01:12:35;;;;;;;;;;;;;;;8.29;86.16;102626.75;5069556;28;20293;-43
2023/01/03 01:15:01;;;;;;;;;;;;;;;8.27;86.29;102630.00;5072201;28;19924;-44
2023/01/03 01:17:27;;;;;;;;;;;;;;;8.24;86.07;102632.34;5072723;28;19916;-45
2023/01/03 01:19:52;;;;;;;;;;;;;;;8.20;86.21;102633.84;5067371;28;20261;-43
2023/01/03 01:22:18;;;;;;;;;;;;;;;8.19;86.11;102633.72;5068276;28;19920;-43
2023/01/03 01:24:43;;;;;;;;;;;;;;;8.19;85.84;102643.97;5058201;28;19935;-42
2023/01/03 01:27:08;;;;;;;;;;;;;;;8.17;86.06;102643.00;5060927;28;20311;-42
2023/01/03 01:29:34;;;;;;;;;;;;;;;8.13;85.99;102648.69;5064286;28;20325;-43
2023/01/03 01:32:00;;;;;;;;;;;;;;;8.12;85.93;102647.81;5065772;28;19923;-43
2023/01/03 01:34:25;;;;;;;;;;;;;;;8.12;85.80;102659.72;5068799;28;19916;-45
2023/01/03 01:36:51;;;;;;;;;;;;;;;8.10;85.65;102656.19;5064385;28;19916;-44
2023/01/03 01:39:18;;;;;;;;;;;;;;;8.07;85.63;102651.75;5073362;28;19912;-43
2023/01/03 01:44:46;;;;;;;;;;;;;;;8.00;85.50;102657.25;5079409;28;19926;-42
2023/01/03 01:47:15;;;;;;;;;;;;;;;7.96;85.60;102650.16;5064827;28;20015;-42
2023/01/03 01:49:41;;;;;;;;;;;;;;;7.95;85.58;102669.75;5072493;28;19920;-43
2023/01/03 01:52:08;;;;;;;;;;;;;;;7.91;85.36;102670.34;5068566;28;20007;-44
2023/01/03 01:54:33;;;;;;;;;;;;;;;7.86;85.15;102674.25;5071133;28;20391;-42
2023/01/03 01:56:58;;;;;;;;;;;;;;;7.84;85.41;102675.81;5071325;28;20011;-45
2023/01/03 01:59:24;;;;;;;;;;;;;;;7.84;85.38;102682.63;5064711;28;19924;-44
2023/01/03 02:01:49;;;;;;;;;;;;;;;7.83;85.27;102689.44;5073973;28;19947;-46
2023/01/03 02:04:23;;;;;;;;;;;;;;;7.82;85.36;102682.50;5074097;28;19959;-42
2023/01/03 02:06:48;;;;;;;;;;;;;;;7.78;85.14;102683.09;5100899;27;20293;-42
2023/01/03 02:09:14;;;;;;;;;;;;;;;7.74;85.15;102688.78;5074992;28;19919;-42
2023/01/03 02:11:45;;;;;;;;;;;;;;;7.71;85.16;102681.78;5067665;28;19912;-44
2023/01/03 02:14:10;;;;;;;;;;;;;;;7.68;85.12;102678.13;5065553;28;20300;-42
2023/01/03 02:16:49;;;;;;;;;;;;;;;7.65;85.11;102673.69;5068424;28;19912;-45
2023/01/03 02:19:43;;;;;;;;;;;;;;;7.63;84.96;102687.16;5068675;28;19917;-43
2023/01/03 02:22:11;;;;;;;;;;;;;;;7.60;84.96;102685.28;5047790;28;20334;-43
2023/01/03 02:25:03;;;;;;;;;;;;;;;7.57;84.98;102685.06;5079104;28;19916;-44
2023/01/03 02:27:47;;;;;;;;;;;;;;;7.55;85.10;102684.06;5076728;28;19935;-44
2023/01/03 02:30:12;;;;;;;;;;;;;;;7.51;84.84;102682.94;5074828;28;19962;-46
2023/01/03 02:32:40;;;;;;;;;;;;;;;7.48;84.82;102685.31;5076469;28;20407;-44
2023/01/03 02:35:11;;;;;;;;;;;;;;;7.44;84.88;102683.31;5076463;28;19912;-44
2023/01/03 02:37:36;;;;;;;;;;;;;;;7.41;84.97;102678.00;5069072;28;20019;-43
2023/01/03 02:40:14;;;;;;;;;;;;;;;7.39;84.72;102679.53;5070399;28;20400;-42
2023/01/03 02:43:01;;;;;;;;;;;;;;;7.37;84.78;102678.56;5073507;28;19958;-45
2023/01/03 02:45:45;;;;;;;;;;;;;;;7.36;85.00;102678.47;5064067;28;19929;-42
2023/01/03 02:48:26;;;;;;;;;;;;;;;7.35;85.07;102682.69;5066365;28;19959;-44
2023/01/03 02:50:55;;;;;;;;;;;;;;;7.34;85.15;102680.91;5066527;28;20136;-43
2023/01/03 02:53:25;;;;;;;;;;;;;;;7.32;84.77;102684.13;5076307;28;19915;-41
2023/01/03 02:55:52;;;;;;;;;;;;;;;7.29;84.98;102674.59;5070142;28;20011;-43
2023/01/03 02:58:20;;;;;;;;;;;;;;;7.28;84.84;102685.59;5074534;28;19943;-43
2023/01/03 03:00:48;;;;;;;;;;;;;;;7.27;84.88;102681.25;5071605;28;19916;-42
2023/01/03 03:03:15;;;;;;;;;;;;;;;7.22;84.70;102667.25;5069408;28;19923;-42
2023/01/03 03:05:55;;;;;;;;;;;;;;;7.17;84.74;102672.03;5064659;28;19924;-42
2023/01/03 03:08:20;;;;;;;;;;;;;;;7.12;84.97;102673.38;5070909;28;19916;-43
2023/01/03 03:13:39;;;;;;;;;;;;;;;7.08;84.96;102680.72;5068196;28;19923;-42
2023/01/03 03:16:49;;;;;;;;;;;;;;;7.07;84.93;102681.50;5072735;28;19912;-43
2023/01/03 03:24:48;;;;;;;;;;;;;;;7.04;85.10;102674.53;5058016;28;19913;-42
2023/01/03 03:24:50;;;;;;;;;;;;;;;6.99;84.94;102684.41;5076192;28;20732;-42
2023/01/03 03:30:04;;;;;;;;;;;;;;;6.96;84.66;102676.50;5070096;28;19926;-44
2023/01/03 03:32:31;;;;;;;;;;;;;;;6.96;85.11;102683.31;5097969;27;19915;-44
2023/01/03 03:34:58;;;;;;;;;;;;;;;6.95;84.79;102673.84;5061778;28;19916;-44
2023/01/03 03:37:26;;;;;;;;;;;;;;;6.94;84.76;102675.53;5066187;28;19995;-44
2023/01/03 03:45:41;;;;;;;;;;;;;;;6.91;85.00;102672.72;5064642;28;19931;-42
2023/01/03 03:48:26;;;;;;;;;;;;;;;6.86;84.75;102674.09;5063778;28;20027;-45
2023/01/03 03:51:13;;;;;;;;;;;;;;;6.82;84.83;102669.53;5070235;28;20321;-44
2023/01/03 03:53:41;;;;;;;;;;;;;;;6.81;84.70;102677.09;5074172;28;19920;-45
2023/01/03 03:56:08;;;;;;;;;;;;;;;6.81;85.03;102678.00;5072500;28;19962;-45
2023/01/03 03:58:45;;;;;;;;;;;;;;;6.79;84.81;102676.06;5058308;28;19926;-42
2023/01/03 04:01:12;;;;;;;;;;;;;;;6.77;84.75;102685.31;5061937;28;19961;-44
2023/01/03 04:03:39;;;;;;;;;;;;;;;6.73;85.10;102679.06;5068251;28;20007;-42
2023/01/03 04:06:25;;;;;;;;;;;;;;;6.70;85.18;102679.75;5065110;28;20394;-42
2023/01/03 04:08:50;;;;;;;;;;;;;;;6.69;84.87;102682.22;5062612;28;20030;-43
2023/01/03 04:11:16;;;;;;;;;;;;;;;6.70;85.17;102684.00;5063026;28;20000;-45
2023/01/03 04:13:41;;;;;;;;;;;;;;;6.72;85.40;102682.41;5069888;28;19921;-44
2023/01/03 04:16:06;;;;;;;;;;;;;;;6.72;85.15;102683.31;5070499;28;19931;-44
2023/01/03 04:18:32;;;;;;;;;;;;;;;6.75;85.02;102676.66;5071413;28;19912;-44
2023/01/03 04:20:57;;;;;;;;;;;;;;;6.72;85.07;102677.31;5071085;28;20282;-43
2023/01/03 04:23:22;;;;;;;;;;;;;;;6.70;84.95;102678.88;5068308;28;19924;-44
2023/01/03 04:25:48;;;;;;;;;;;;;;;6.67;85.13;102674.44;5067491;28;20905;-47
2023/01/03 04:28:13;;;;;;;;;;;;;;;6.66;85.24;102676.88;5069163;28;19924;-43
2023/01/03 04:30:39;;;;;;;;;;;;;;;6.64;85.30;102676.75;5068056;28;20020;-43
2023/01/03 04:33:04;;;;;;;;;;;;;;;6.64;85.39;102675.88;5067033;28;19931;-43
2023/01/03 04:35:33;;;;;;;;;;;;;;;6.66;85.40;102675.19;5067095;28;19920;-45
2023/01/03 04:37:58;;;;;;;;;;;;;;;6.66;85.47;102687.09;5068944;28;20517;-43
2023/01/03 04:40:24;;;;;;;;;;;;;;;6.66;85.29;102684.53;5067579;28;19927;-43
2023/01/03 04:45:33;;;;;;;;;;;;;;;6.63;85.19;102687.75;5063629;28;20490;-42
2023/01/03 04:47:59;;;;;;;;;;;;;;;6.61;85.20;102686.78;5064686;28;19958;-45
2023/01/03 04:50:24;;;;;;;;;;;;;;;6.62;85.30;102682.56;5067617;28;19959;-41
2023/01/03 04:52:49;;;;;;;;;;;;;;;6.61;85.47;102678.19;5070276;28;19916;-43
2023/01/03 04:55:15;;;;;;;;;;;;;;;6.61;85.22;102685.84;5066869;28;19917;-44
2023/01/03 04:57:40;;;;;;;;;;;;;;;6.61;85.37;102678.19;5074653;28;19920;-41
2023/01/03 05:00:06;;;;;;;;;;;;;;;6.60;85.65;102681.53;5067793;28;20284;-43
2023/01/03 05:02:31;;;;;;;;;;;;;;;6.58;85.46;102681.44;5067773;28;19958;-45
2023/01/03 05:04:56;;;;;;;;;;;;;;;6.55;85.84;102691.44;5067572;28;20384;-43
2023/01/03 05:07:21;;;;;;;;;;;;;;;6.55;85.87;102685.41;5064975;28;20334;-45
2023/01/03 05:09:46;;;;;;;;;;;;;;;6.55;86.18;102685.41;5063976;28;20316;-45
2023/01/03 05:12:12;;;;;;;;;;;;;;;6.54;86.22;102683.63;5067507;28;19998;-45
2023/01/03 05:14:40;;;;;;;;;;;;;;;6.54;86.06;102676.84;5074768;28;19943;-43
2023/01/03 05:17:06;;;;;;;;;;;;;;;6.55;86.17;102682.84;5073918;28;20058;-43
2023/01/03 05:19:31;;;;;;;;;;;;;;;6.54;86.34;102674.31;5072069;28;19977;-45
2023/01/03 05:27:24;;;;;;;;;;;;;;;6.56;86.39;102677.88;5069511;28;20457;-43
2023/01/03 05:29:51;;;;;;;;;;;;;;;6.57;86.46;102674.53;5069393;28;19916;-43
2023/01/03 05:32:16;;;;;;;;;;;;;;;6.57;86.56;102671.97;5069224;28;19916;-44
2023/01/03 05:34:41;;;;;;;;;;;;;;;6.56;86.27;102670.22;5090102;28;19939;-45
2023/01/03 05:37:07;;;;;;;;;;;;;;;6.57;86.26;102671.09;5067940;28;19916;-41
2023/01/03 05:39:32;;;;;;;;;;;;;;;6.55;86.49;102672.63;5064751;28;19916;-44
2023/01/03 05:42:00;;;;;;;;;;;;;;;6.55;86.49;102670.06;5066198;28;19923;-45
2023/01/03 05:44:30;;;;;;;;;;;;;;;6.53;86.46;102666.53;5065633;28;19921;-46
2023/01/03 05:46:56;;;;;;;;;;;;;;;6.52;86.37;102659.66;5065207;28;19912;-45
2023/01/03 05:49:21;;;;;;;;;;;;;;;6.53;86.51;102656.31;5065135;28;20061;-44
2023/01/03 05:51:46;;;;;;;;;;;;;;;6.52;86.33;102659.66;5067060;28;19994;-42
2023/01/03 05:54:15;;;;;;;;;;;;;;;6.50;86.56;102659.53;5060073;28;19916;-42
2023/01/03 05:56:40;;;;;;;;;;;;;;;6.51;86.52;102655.31;5092687;28;19916;-43
2023/01/03 05:59:08;;;;;;;;;;;;;;;6.51;86.17;102660.44;5068428;28;19912;-44
2023/01/03 06:01:34;;;;;;;;;;;;;;;6.50;86.33;102666.31;5071091;28;19943;-45
2023/01/03 06:03:59;;;;;;;;;;;;;;;6.49;86.35;102667.06;5071117;28;20431;-44
2023/01/03 06:06:25;;;;;;;;;;;;;;;6.50;86.48;102668.88;5056948;28;20307;-44
2023/01/03 06:08:50;;;;;;;;;;;;;;;6.48;86.45;102655.06;5063380;28;20353;-42
2023/01/03 06:11:16;;;;;;;;;;;;;;;6.48;86.51;102657.63;5063502;28;19927;-42
2023/01/03 06:13:41;;;;;;;;;;;;;;;6.47;86.39;102649.06;5070790;28;19919;-45
2023/01/03 06:18:52;;;;;;;;;;;;;;;6.44;86.66;102651.44;5075591;28;20280;-45
2023/01/03 06:21:18;;;;;;;;;;;;;;;6.41;86.75;102646.06;5064736;28;19920;-43
2023/01/03 06:23:46;;;;;;;;;;;;;;;6.40;86.83;102642.63;5071606;28;19927;-44
2023/01/03 06:26:15;;;;;;;;;;;;;;;6.42;86.93;102646.19;5068298;28;19916;-45
2023/01/03 06:28:40;;;;;;;;;;;;;;;6.41;87.09;102644.41;5078810;28;20027;-45
2023/01/03 06:31:06;;;;;;;;;;;;;;;6.41;87.05;102643.53;5071052;28;20423;-41
2023/01/03 06:33:31;;;;;;;;;;;;;;;6.41;87.22;102646.06;5070081;28;19923;-45
2023/01/03 06:36:00;;;;;;;;;;;;;;;6.39;87.29;102640.84;5073599;28;20007;-45
2023/01/03 06:38:27;;;;;;;;;;;;;;;6.40;87.10;102640.06;5067350;28;19927;-45
2023/01/03 06:40:52;;;;;;;;;;;;;;;6.41;87.14;102649.50;5074322;28;20414;-44
2023/01/03 06:43:17;;;;;;;;;;;;;;;6.40;87.22;102636.63;5064246;28;19925;-45
2023/01/03 06:53:55;;;;;;;;;;;;;;;6.35;87.42;102631.19;5066323;28;19923;-44
2023/01/03 06:56:21;;;;;;;;;;;;;;;6.34;87.58;102626.84;5073371;28;20292;-45
2023/01/03 06:58:47;;;;;;;;;;;;;;;6.34;87.71;102618.31;5069462;28;19923;-45
2023/01/03 07:01:13;;;;;;;;;;;;;;;6.35;87.52;102627.75;5073356;28;19916;-45
2023/01/03 07:03:38;;;;;;;;;;;;;;;6.34;87.62;102626.84;5068642;28;19916;-45
2023/01/03 07:06:03;;;;;;;;;;;;;;;6.32;87.60;102614.75;5078402;28;19974;-43
2023/01/03 07:08:29;;;;;;;;;;;;;;;6.29;87.95;102623.06;5072212;28;19916;-45
2023/01/03 07:10:54;;;;;;;;;;;;;;;6.31;88.06;102625.72;5071172;28;19916;-44
2023/01/03 07:16:03;;;;;;;;;;;;;;;6.34;88.17;102642.19;5069994;28;20573;-43
2023/01/03 07:18:29;;;;;;;;;;;;;;;6.35;87.91;102636.28;5073749;28;19963;-43
2023/01/03 07:20:55;;;;;;;;;;;;;;;6.35;88.10;102632.84;5074456;28;19958;-44
2023/01/03 07:23:20;;;;;;;;;;;;;;;6.36;88.18;102652.50;5075781;28;19924;-44
2023/01/03 07:25:45;;;;;;;;;;;;;;;6.37;88.50;102661.94;5071074;28;19924;-44
2023/01/03 07:28:11;;;;;;;;;;;;;;;6.40;88.60;102663.06;5074547;28;19927;-43
2023/01/03 07:30:38;;;;;;;;;;;;;;;6.40;88.49;102655.41;5072649;28;19920;-45
2023/01/03 07:33:03;;;;;;;;;;;;;;;6.40;88.71;102652.84;5071724;28;19923;-43
2023/01/03 07:35:31;;;;;;;;;;;;;;;6.41;88.82;102643.53;5077208;28;19994;-43
2023/01/03 07:37:56;;;;;;;;;;;;;;;6.42;88.82;102643.63;5077000;28;19911;-44
2023/01/03 07:40:21;;;;;;;;;;;;;;;6.41;88.90;102652.06;5074103;28;20007;-46
2023/01/03 07:45:30;;;;;;;;;;;;;;;6.43;89.48;102658.22;5075371;28;19944;-43
2023/01/03 07:47:56;;;;;;;;;;;;;;;6.45;89.82;102659.19;5066892;28;19917;-43
2023/01/03 07:50:21;;;;;;;;;;;;;;;6.47;89.95;102658.41;5067767;28;20433;-42
2023/01/03 07:52:46;;;;;;;;;;;;;;;6.48;90.10;102665.31;5070978;28;19912;-45
2023/01/03 07:55:11;;;;;;;;;;;;;;;6.51;90.42;102670.66;5073831;28;19952;-46
2023/01/03 07:57:37;;;;;;;;;;;;;;;6.53;90.44;102674.19;5070768;28;19959;-44
2023/01/03 08:00:02;;;;;;;;;;;;;;;6.54;90.70;102668.31;5070276;28;20356;-45
2023/01/03 08:02:28;;;;;;;;;;;;;;;6.56;91.04;102669.31;5070367;28;19917;-44
2023/01/03 08:04:53;;;;;;;;;;;;;;;6.59;91.60;102674.66;5072731;28;19943;-44
2023/01/03 08:07:18;;;;;;;;;;;;;;;6.62;91.21;102674.88;5071080;28;19916;-43
2023/01/03 08:15:11;;;;;;;;;;;;;;;6.67;92.16;102692.34;5068399;28;19926;-43
2023/01/03 08:17:36;;;;;;;;;;;;;;;6.69;92.51;102692.44;5063959;28;19917;-42
2023/01/03 08:20:01;;;;;;;;;;;;;;;6.72;92.67;102690.09;5067907;28;19923;-44
2023/01/03 08:22:28;;;;;;;;;;;;;;;6.75;92.68;102694.56;5067386;28;19943;-43
2023/01/03 08:24:53;;;;;;;;;;;;;;;6.78;93.17;102705.00;5068825;28;20014;-44
2023/01/03 08:27:18;;;;;;;;;;;;;;;6.79;93.19;102696.53;5066041;28;20379;-43
2023/01/03 08:29:45;;;;;;;;;;;;;;;6.79;93.22;102705.09;5071562;28;19916;-44
2023/01/03 08:32:10;;;;;;;;;;;;;;;6.83;93.30;102708.78;5071506;28;19929;-48
2023/01/03 08:34:37;;;;;;;;;;;;;;;6.84;93.63;102695.19;5071567;28;20439;-45
2023/01/03 08:37:06;;;;;;;;;;;;;;;6.86;94.00;102697.13;5066161;28;19919;-41
2023/01/03 08:39:38;;;;;;;;;;;;;;;6.88;93.85;102708.34;5072330;28;20272;-45
2023/01/03 08:42:05;;;;;;;;;;;;;;;6.89;93.84;102701.53;5063688;28;19924;-42
2023/01/03 08:44:30;;;;;;;;;;;;;;;6.92;93.82;102705.22;5066786;28;19931;-41
2023/01/03 08:46:58;;;;;;;;;;;;;;;6.93;93.95;102703.56;5067815;28;20285;-43
2023/01/03 08:49:24;;;;;;;;;;;;;;;6.94;93.89;102716.44;5077111;28;19966;-45
2023/01/03 08:51:49;;;;;;;;;;;;;;;6.97;94.13;102720.88;5070741;28;19916;-44
2023/01/03 08:54:14;;;;;;;;;;;;;;;6.99;94.04;102711.66;5070411;28;19923;-46
2023/01/03 08:56:39;;;;;;;;;;;;;;;7.02;94.28;102716.09;5065733;28;19916;-42
2023/01/03 08:59:05;;;;;;;;;;;;;;;7.03;94.19;102716.19;5066206;28;20002;-49
2023/01/03 09:01:30;;;;;;;;;;;;;;;7.06;94.39;102715.56;5063514;28;19950;-45
2023/01/03 09:03:55;;;;;;;;;;;;;;;7.06;95.08;102716.44;5063352;28;19920;-44
2023/01/03 09:06:21;;;;;;;;;;;;;;;7.07;95.34;102717.31;5063597;28;19924;-45
2023/01/03 09:08:46;;;;;;;;;;;;;;;7.09;95.13;102710.63;5068211;28;19912;-42
2023/01/03 09:11:11;;;;;;;;;;;;;;;7.11;95.43;102719.34;5071040;28;20353;-44
2023/01/03 09:13:37;;;;;;;;;;;;;;;7.11;95.51;102714.22;5067497;28;19923;-43
2023/01/03 09:16:03;;;;;;;;;;;;;;;7.14;96.12;102724.66;5068925;28;19917;-45
2023/01/03 09:18:28;;;;;;;;;;;;;;;7.13;95.85;102726.31;5073764;28;19924;-43
2023/01/03 09:20:53;;;;;;;;;;;;;;;7.15;96.20;102713.63;5068881;28;19916;-45
2023/01/03 09:23:19;;;;;;;;;;;;;;;7.15;96.13;102711.97;5066914;28;19973;-45
2023/01/03 09:25:45;;;;;;;;;;;;;;;7.17;96.53;102720.66;5069512;28;19922;-45
2023/01/03 09:28:10;;;;;;;;;;;;;;;7.19;96.40;102725.88;5064908;28;20346;-47
2023/01/03 09:30:35;;;;;;;;;;;;;;;7.21;96.65;102721.75;5069754;28;19969;-45
2023/01/03 09:33:01;;;;;;;;;;;;;;;7.25;96.86;102716.06;5065468;28;19924;-44
2023/01/03 09:35:26;;;;;;;;;;;;;;;7.26;96.98;102715.28;5071780;28;19959;-44
2023/01/03 09:37:51;;;;;;;;;;;;;;;7.29;96.97;102720.66;5058601;28;19987;-46
2023/01/03 09:40:17;;;;;;;;;;;;;;;7.31;96.94;102713.97;5067541;28;19917;-44
2023/01/03 09:45:28;;;;;;;;;;;;;;;7.35;97.51;102720.19;5068559;28;20332;-44
2023/01/03 09:47:54;;;;;;;;;;;;;;;7.36;97.54;102722.84;5063806;28;19912;-46
2023/01/03 09:50:21;;;;;;;;;;;;;;;7.38;97.88;102717.81;5069296;28;19951;-45
2023/01/03 10:04:05;;;;;;;;;;;;;;;7.46;98.08;102715.03;5067278;28;19928;-44
2023/01/03 10:06:49;;;;;;;;;;;;;;;7.48;98.10;102718.59;5073478;28;20314;-47
2023/01/03 10:09:37;;;;;;;;;;;;;;;7.50;98.02;102716.13;5066505;28;20369;-43
2023/01/03 10:12:06;;;;;;;;;;;;;;;7.54;98.50;102713.00;5054296;28;19912;-45
2023/01/03 10:14:49;;;;;;;;;;;;;;;7.55;98.52;102709.66;5068203;28;19939;-43
2023/01/03 10:17:15;;;;;;;;;;;;;;;7.58;98.37;102711.53;5101151;27;20279;-45
2023/01/03 10:20:01;;;;;;;;;;;;;;;7.59;98.37;102710.78;5072132;28;19912;-45
2023/01/03 10:22:27;;;;;;;;;;;;;;;7.62;98.50;102717.00;5067470;28;20284;-45
2023/01/03 10:24:56;;;;;;;;;;;;;;;7.65;98.47;102714.66;5069768;28;19962;-44
2023/01/03 10:27:24;;;;;;;;;;;;;;;7.68;99.03;102713.97;5076122;28;19916;-45
2023/01/03 10:29:52;;;;;;;;;;;;;;;7.70;98.76;102718.41;5072199;28;20292;-43
2023/01/03 10:32:17;;;;;;;;;;;;;;;7.73;98.72;102704.94;5072667;28;20011;-48
2023/01/03 10:34:43;;;;;;;;;;;;;;;7.74;99.00;102710.16;5065242;28;19999;-45
2023/01/03 10:37:15;;;;;;;;;;;;;;;7.79;98.81;102697.66;5071427;28;19975;-47
2023/01/03 10:39:40;;;;;;;;;;;;;;;7.80;99.02;102702.88;5068735;28;19912;-44
2023/01/03 10:42:05;;;;;;;;;;;;;;;7.83;98.75;102703.91;5071553;28;20343;-40
2023/01/03 10:44:31;;;;;;;;;;;;;;;7.86;98.57;102701.53;5071271;28;19928;-43
2023/01/03 10:46:58;;;;;;;;;;;;;;;7.87;98.65;102695.63;5070041;28;19962;-44
2023/01/03 10:49:25;;;;;;;;;;;;;;;7.89;99.04;102702.66;5069574;28;20364;-45
2023/01/03 10:51:53;;;;;;;;;;;;;;;7.89;98.67;102694.97;5072788;28;19912;-47
2023/01/03 10:54:18;;;;;;;;;;;;;;;7.92;98.59;102701.94;5071033;28;19912;-46
2023/01/03 10:56:44;;;;;;;;;;;;;;;7.95;98.67;102707.31;5068574;28;19921;-45
2023/01/03 10:59:11;;;;;;;;;;;;;;;7.96;98.62;102699.72;5073662;28;19920;-45
2023/01/03 11:01:36;;;;;;;;;;;;;;;7.98;98.58;102708.38;5070770;28;19912;-46
2023/01/03 11:04:05;;;;;;;;;;;;;;;7.99;98.26;102705.03;5068940;28;20000;-43
2023/01/03 11:06:30;;;;;;;;;;;;;;;8.01;98.34;102700.03;5099401;27;19979;-45
2023/01/03 11:08:59;;;;;;;;;;;;;;;8.03;98.28;102703.56;5066857;28;19930;-45
2023/01/03 11:11:30;;;;;;;;;;;;;;;8.06;98.25;102711.44;5067212;28;20635;-44
2023/01/03 11:14:07;;;;;;;;;;;;;;;8.07;98.34;102705.56;5066504;28;20365;-45
2023/01/03 11:16:33;;;;;;;;;;;;;;;8.09;98.29;102701.44;5068010;28;19912;-44
2023/01/03 11:18:59;;;;;;;;;;;;;;;8.11;98.30;102702.41;5070406;28;20408;-45
2023/01/03 11:21:37;;;;;;;;;;;;;;;8.12;98.07;102701.63;5069131;28;19916;-44
2023/01/03 11:24:37;;;;;;;;;;;;;;;8.15;98.31;102695.81;5070571;28;19935;-44
2023/01/03 11:27:10;;;;;;;;;;;;;;;8.17;98.14;102696.81;5010852;28;19928;-46
2023/01/03 11:29:41;;;;;;;;;;;;;;;8.17;98.12;102700.25;5061288;28;19919;-44
2023/01/03 11:32:06;;;;;;;;;;;;;;;8.19;98.00;102691.00;5067837;28;20382;-43
2023/01/03 11:34:52;;;;;;;;;;;;;;;8.21;98.03;102686.88;5078290;28;19961;-44
2023/01/03 11:37:23;;;;;;;;;;;;;;;8.22;98.18;102690.31;5070650;28;20011;-43
2023/01/03 11:39:54;;;;;;;;;;;;;;;8.23;97.98;102689.53;5069166;28;19966;-44
2023/01/03 11:42:46;;;;;;;;;;;;;;;8.25;97.68;102695.63;5066331;28;19928;-45
2023/01/03 11:45:36;;;;;;;;;;;;;;;8.23;97.65;102684.41;5070332;28;19916;-45
2023/01/03 11:48:04;;;;;;;;;;;;;;;8.24;97.70;102683.59;5066211;28;19912;-45
2023/01/03 11:50:38;;;;;;;;;;;;;;;8.22;97.53;102680.94;5068417;28;19912;-42
2023/01/03 11:53:12;;;;;;;;;;;;;;;8.25;97.29;102675.13;5073153;28;19973;-44
2023/01/03 11:55:45;;;;;;;;;;;;;;;8.26;97.12;102665.00;5069116;28;19920;-42
2023/01/03 11:58:28;;;;;;;;;;;;;;;8.28;96.91;102665.09;5068414;28;19974;-45
2023/01/03 12:01:12;;;;;;;;;;;;;;;8.28;96.42;102657.41;5073491;28;19912;-44
2023/01/03 12:03:49;;;;;;;;;;;;;;;8.29;95.98;102654.94;5063159;28;20431;-44
2023/01/03 12:06:20;;;;;;;;;;;;;;;8.32;95.85;102654.28;5074523;28;19959;-44
2023/01/03 12:09:05;;;;;;;;;;;;;;;8.35;95.74;102659.59;5072319;28;20367;-45
2023/01/03 12:11:31;;;;;;;;;;;;;;;8.36;95.63;102656.25;5073099;28;19984;-45
2023/01/03 12:14:05;;;;;;;;;;;;;;;8.37;95.38;102654.56;5066332;28;20343;-45
2023/01/03 12:16:30;;;;;;;;;;;;;;;8.37;95.18;102657.16;5073621;28;19919;-44
2023/01/03 12:19:07;;;;;;;;;;;;;;;8.37;94.86;102647.78;5071013;28;19912;-45
2023/01/03 12:21:41;;;;;;;;;;;;;;;8.39;94.89;102643.66;5071998;28;20002;-43
2023/01/03 12:24:12;;;;;;;;;;;;;;;8.40;94.54;102642.88;5074919;28;20296;-45
2023/01/03 12:26:40;;;;;;;;;;;;;;;8.41;94.21;102636.94;5073528;28;19923;-43
2023/01/03 12:29:11;;;;;;;;;;;;;;;8.43;93.86;102632.78;5080811;28;19954;-44
2023/01/03 12:31:37;;;;;;;;;;;;;;;8.46;93.43;102632.13;5066403;28;19912;-46
2023/01/03 12:34:02;;;;;;;;;;;;;;;8.48;93.19;102639.09;5080841;28;20287;-47
2023/01/03 12:36:42;;;;;;;;;;;;;;;8.51;93.05;102636.75;5071599;28;19920;-45
2023/01/03 12:39:22;;;;;;;;;;;;;;;8.55;92.94;102632.69;5068986;28;20353;-44
2023/01/03 12:41:53;;;;;;;;;;;;;;;8.56;92.67;102630.25;5072920;28;19918;-44
2023/01/03 12:44:24;;;;;;;;;;;;;;;8.57;91.42;102632.03;5067206;28;19962;-44
2023/01/03 12:46:51;;;;;;;;;;;;;;;8.58;91.51;102630.34;5067782;28;19912;-43
2023/01/03 12:49:20;;;;;;;;;;;;;;;8.60;91.33;102636.44;5069226;28;19920;-47
2023/01/03 12:51:45;;;;;;;;;;;;;;;8.60;90.78;102628.75;5065031;28;19912;-45
2023/01/03 12:54:28;;;;;;;;;;;;;;;8.61;90.66;102630.53;5069854;28;20286;-44
2023/01/03 12:57:21;;;;;;;;;;;;;;;8.62;90.56;102634.00;5066720;28;20372;-44
2023/01/03 12:59:53;;;;;;;;;;;;;;;8.63;90.86;102628.09;5072982;28;20400;-43
2023/01/03 13:02:25;;;;;;;;;;;;;;;8.64;90.41;102623.06;5069243;28;19920;-44
2023/01/03 13:04:53;;;;;;;;;;;;;;;8.65;90.26;102623.94;5066849;28;20471;-44
2023/01/03 13:07:23;;;;;;;;;;;;;;;8.65;89.79;102634.19;5068147;28;20479;-44
2023/01/03 13:09:57;;;;;;;;;;;;;;;8.67;89.91;102632.59;5064486;28;19923;-43
2023/01/03 13:12:25;;;;;;;;;;;;;;;8.67;89.83;102632.59;5065672;28;19928;-44
2023/01/03 13:14:54;;;;;;;;;;;;;;;8.66;90.02;102630.84;5069313;28;19927;-44
2023/01/03 13:17:30;;;;;;;;;;;;;;;8.67;90.33;102636.06;5065876;28;19912;-44
2023/01/03 13:20:16;;;;;;;;;;;;;;;8.69;90.18;102629.38;5066969;28;19912;-44
2023/01/03 13:22:44;;;;;;;;;;;;;;;8.71;90.54;102616.63;5066603;28;20546;-44
2023/01/03 13:25:25;;;;;;;;;;;;;;;8.75;90.22;102616.03;5068935;28;20284;-44
2023/01/03 13:27:50;;;;;;;;;;;;;;;8.75;90.23;102605.78;5086323;28;19920;-45
2023/01/03 13:30:22;;;;;;;;;;;;;;;8.76;90.25;102607.56;5067290;28;19925;-43
2023/01/03 13:32:50;;;;;;;;;;;;;;;8.77;90.07;102611.88;5067618;28;20507;-46
2023/01/03 13:35:15;;;;;;;;;;;;;;;8.79;90.21;102600.03;5066567;28;20254;-46
2023/01/03 13:37:45;;;;;;;;;;;;;;;8.83;90.17;102614.84;5104518;27;19920;-45
2023/01/03 13:40:22;;;;;;;;;;;;;;;8.86;89.60;102597.09;5067002;28;19912;-45
2023/01/03 13:42:59;;;;;;;;;;;;;;;8.86;90.10;102589.41;5074672;28;20837;-48
2023/01/03 13:45:24;;;;;;;;;;;;;;;8.91;89.11;102599.91;5068842;28;19927;-46
2023/01/03 13:47:51;;;;;;;;;;;;;;;8.91;89.13;102603.38;5069306;28;19916;-45
2023/01/03 13:50:21;;;;;;;;;;;;;;;8.93;89.19;102606.94;5068351;28;19957;-44
2023/01/03 13:52:58;;;;;;;;;;;;;;;8.93;89.16;102596.69;5099744;27;19913;-43
2023/01/03 13:55:49;;;;;;;;;;;;;;;8.94;88.77;102598.44;5070072;28;19916;-47
2023/01/03 13:58:23;;;;;;;;;;;;;;;8.95;89.24;102599.31;5071222;28;20376;-46
2023/01/03 14:00:55;;;;;;;;;;;;;;;8.95;89.03;102591.63;5069231;28;20288;-44